Time;durP1;ratioP1;P1;durP2;ratioP2;P2;SDS_P1;SDS_P2;PMS_P1;PMS_P2;Temp;Humidity;BMP_temperature;BMP_pressure;BME280_temperature;BME280_humidity;BME280_pressure;Samples;Min_cycle;Max_cycle;Signal;HPM_P1;HPM_P2
2021/09/27 04:52:52;;;;;;;37.42;22.50;;;;;;;;;;4989926;23;20213;-88
2021/09/27 04:55:41;;;;;;;31.67;20.85;;;;;;;;;;4958567;28;20059;-86
2021/09/27 04:58:16;;;;;;;27.65;18.70;;;;;;;;;;4949318;28;20047;-87
2021/09/27 05:00:59;;;;;;;26.20;17.48;;;;;;;;;;4972547;28;20039;-83
2021/09/27 05:03:47;;;;;;;27.70;17.70;;;;;;;;;;4936788;29;20043;-84
2021/09/27 05:06:23;;;;;;;21.25;16.00;;;;;;;;;;4950875;28;20051;-84
2021/09/27 05:09:05;;;;;;;38.10;28.48;;;;;;;;;;4959827;28;20527;-85
2021/09/27 05:12:00;;;;;;;18.38;15.13;;;;;;;;;;4950917;28;20043;-85
2021/09/27 05:14:36;;;;;;;19.02;14.35;;;;;;;;;;4905858;29;20047;-84
2021/09/27 05:17:11;;;;;;;25.15;15.15;;;;;;;;;;4956623;28;20073;-85
2021/09/27 05:19:47;;;;;;;19.90;14.40;;;;;;;;;;4957401;28;20360;-85
2021/09/27 05:22:32;;;;;;;16.55;12.85;;;;;;;;;;4956867;28;20078;-85
2021/09/27 05:25:30;;;;;;;20.50;12.43;;;;;;;;;;4938243;28;20066;-84
2021/09/27 05:28:10;;;;;;;23.25;12.57;;;;;;;;;;4877616;29;20514;-85
2021/09/27 05:30:49;;;;;;;19.80;11.75;;;;;;;;;;4956726;28;20114;-85
2021/09/27 05:33:20;;;;;;;17.50;12.10;;;;;;;;;;4965700;28;20051;-85
2021/09/27 05:36:00;;;;;;;17.20;13.45;;;;;;;;;;4947259;28;20348;-86
2021/09/27 05:38:31;;;;;;;20.13;15.18;;;;;;;;;;4969473;28;20039;-85
2021/09/27 05:41:03;;;;;;;20.63;15.43;;;;;;;;;;4939106;29;20098;-85
2021/09/27 05:43:39;;;;;;;43.25;23.60;;;;;;;;;;4956939;28;20039;-85
2021/09/27 05:46:12;;;;;;;23.23;18.80;;;;;;;;;;4939653;29;20043;-85
2021/09/27 05:48:44;;;;;;;28.60;18.85;;;;;;;;;;4941149;28;20555;-85
2021/09/27 05:51:14;;;;;;;41.17;26.38;;;;;;;;;;4936386;29;20273;-85
2021/09/27 05:53:56;;;;;;;38.88;25.33;;;;;;;;;;4954799;28;20047;-85
2021/09/27 05:56:29;;;;;;;45.35;27.13;;;;;;;;;;4943491;28;20039;-85
2021/09/27 05:59:03;;;;;;;40.03;25.95;;;;;;;;;;4951579;28;20192;-85
2021/09/27 06:01:32;;;;;;;38.58;25.30;;;;;;;;;;4937185;29;20048;-85
2021/09/27 06:04:05;;;;;;;28.02;21.23;;;;;;;;;;4957221;28;20067;-85
2021/09/27 06:06:36;;;;;;;27.92;19.33;;;;;;;;;;4954482;28;20039;-85
2021/09/27 06:09:20;;;;;;;21.55;16.30;;;;;;;;;;4949267;28;20042;-85
2021/09/27 06:11:53;;;;;;;19.23;15.68;;;;;;;;;;4946660;28;20203;-84
2021/09/27 06:14:22;;;;;;;25.63;16.13;;;;;;;;;;4955910;28;20051;-85
2021/09/27 06:16:57;;;;;;;19.95;15.43;;;;;;;;;;4962540;28;20043;-85
2021/09/27 06:19:26;;;;;;;19.48;14.45;;;;;;;;;;4964855;28;20047;-85
2021/09/27 06:22:06;;;;;;;21.10;15.05;;;;;;;;;;4945283;28;20043;-84
2021/09/27 06:24:42;;;;;;;19.85;15.32;;;;;;;;;;4952402;28;20050;-85
2021/09/27 06:27:12;;;;;;;17.52;13.82;;;;;;;;;;4947019;28;20039;-86
2021/09/27 06:29:46;;;;;;;15.52;12.45;;;;;;;;;;4946541;28;20138;-85
2021/09/27 06:32:20;;;;;;;13.63;11.27;;;;;;;;;;4943567;28;20062;-85
2021/09/27 06:34:50;;;;;;;11.75;10.55;;;;;;;;;;4953639;28;20047;-85
2021/09/27 06:37:18;;;;;;;13.35;10.95;;;;;;;;;;4955071;28;20058;-85
2021/09/27 06:39:46;;;;;;;12.43;11.13;;;;;;;;;;4954751;28;20054;-84
2021/09/27 06:42:13;;;;;;;12.98;11.50;;;;;;;;;;4937792;28;20053;-85
2021/09/27 06:44:45;;;;;;;17.20;13.30;;;;;;;;;;4956237;28;20040;-85
2021/09/27 06:47:12;;;;;;;15.98;14.02;;;;;;;;;;4956566;28;20118;-85
2021/09/27 06:49:40;;;;;;;32.28;24.55;;;;;;;;;;4936527;28;20051;-85
2021/09/27 06:52:07;;;;;;;29.40;22.77;;;;;;;;;;4937470;28;20109;-85
2021/09/27 06:54:35;;;;;;;31.90;24.60;;;;;;;;;;4936614;29;20646;-85
2021/09/27 06:57:02;;;;;;;39.05;24.40;;;;;;;;;;4954501;28;20058;-84
2021/09/27 06:59:30;;;;;;;31.83;23.70;;;;;;;;;;4936835;28;20090;-85
2021/09/27 07:01:59;;;;;;;34.97;26.30;;;;;;;;;;4954451;28;20051;-85
2021/09/27 07:04:27;;;;;;;36.95;26.45;;;;;;;;;;4938532;28;20067;-86
2021/09/27 07:06:54;;;;;;;34.13;25.88;;;;;;;;;;4935467;29;20083;-85
2021/09/27 07:09:22;;;;;;;43.15;29.58;;;;;;;;;;4952212;28;20070;-86
2021/09/27 07:14:44;;;;;;;41.58;28.55;;;;;;;;;;5087122;23;20105;-90
2021/09/27 07:17:14;;;;;;;38.13;27.70;;;;;;;;;;4947901;28;20393;-84
2021/09/27 07:19:42;;;;;;;35.17;26.80;;;;;;;;;;4947158;28;20070;-85
2021/09/27 07:22:09;;;;;;;32.25;25.00;;;;;;;;;;4959830;28;20019;-84
2021/09/27 07:24:37;;;;;;;28.88;23.90;;;;;;;;;;4984416;28;20058;-84
2021/09/27 07:27:05;;;;;;;30.13;24.63;;;;;;;;;;4981522;28;20103;-85
2021/09/27 07:29:33;;;;;;;29.65;24.48;;;;;;;;;;4962827;28;20054;-85
2021/09/27 07:32:00;;;;;;;30.85;23.88;;;;;;;;;;4980635;28;20027;-85
2021/09/27 07:34:29;;;;;;;29.23;23.98;;;;;;;;;;4973814;28;20071;-85
2021/09/27 07:36:57;;;;;;;32.30;26.42;;;;;;;;;;4957893;28;20047;-85
2021/09/27 07:39:25;;;;;;;34.60;28.42;;;;;;;;;;4934173;28;20047;-84
2021/09/27 07:41:53;;;;;;;35.75;28.02;;;;;;;;;;4955400;28;20653;-85
2021/09/27 07:44:20;;;;;;;36.63;29.80;;;;;;;;;;4957338;28;20045;-84
2021/09/27 07:46:49;;;;;;;39.85;31.67;;;;;;;;;;4939184;28;20050;-84
2021/09/27 07:49:17;;;;;;;42.22;32.38;;;;;;;;;;4939673;28;20046;-85
2021/09/27 07:51:46;;;;;;;48.05;33.10;;;;;;;;;;4952846;28;20631;-85
2021/09/27 07:54:14;;;;;;;45.58;32.20;;;;;;;;;;4949199;28;20488;-84
2021/09/27 07:56:41;;;;;;;44.25;32.78;;;;;;;;;;4934600;29;20043;-85
2021/09/27 07:59:08;;;;;;;43.22;32.80;;;;;;;;;;4952852;28;20047;-85
2021/09/27 08:01:36;;;;;;;47.30;34.00;;;;;;;;;;4937025;28;20039;-84
2021/09/27 08:04:04;;;;;;;48.70;34.17;;;;;;;;;;4951970;29;20235;-84
2021/09/27 08:06:31;;;;;;;46.13;35.17;;;;;;;;;;4939924;28;20035;-85
2021/09/27 08:09:00;;;;;;;48.13;36.00;;;;;;;;;;4958402;28;20043;-83
2021/09/27 08:11:28;;;;;;;50.92;37.10;;;;;;;;;;4965110;28;20040;-83
2021/09/27 08:13:55;;;;;;;52.80;35.10;;;;;;;;;;4954895;28;20058;-84
2021/09/27 08:16:23;;;;;;;46.53;34.42;;;;;;;;;;4954065;28;20146;-84
2021/09/27 08:18:50;;;;;;;50.90;35.70;;;;;;;;;;4935711;28;20106;-83
2021/09/27 08:21:20;;;;;;;53.15;38.97;;;;;;;;;;4956788;28;20047;-84
2021/09/27 08:23:47;;;;;;;56.30;39.55;;;;;;;;;;4953530;28;20053;-81
2021/09/27 08:26:16;;;;;;;58.03;38.80;;;;;;;;;;4952813;28;20043;-83
2021/09/27 08:28:44;;;;;;;53.72;37.30;;;;;;;;;;4955022;28;22470;-83
2021/09/27 08:31:14;;;;;;;47.72;36.03;;;;;;;;;;4956736;28;20059;-83
2021/09/27 08:33:42;;;;;;;46.60;33.78;;;;;;;;;;4935264;28;20047;-83
2021/09/27 08:36:10;;;;;;;43.00;31.88;;;;;;;;;;4931279;28;20500;-84
2021/09/27 08:38:42;;;;;;;33.28;26.83;;;;;;;;;;4939473;28;20574;-88
2021/09/27 08:41:18;;;;;;;37.85;26.77;;;;;;;;;;4945001;28;20054;-83
2021/09/27 08:47:45;;;;;;;27.85;22.08;;;;;;;;;;4921257;29;20059;-85
2021/09/27 08:50:14;;;;;;;30.00;24.48;;;;;;;;;;4916596;28;20047;-84
2021/09/27 08:52:42;;;;;;;30.67;25.48;;;;;;;;;;4955339;28;20051;-84
2021/09/27 08:55:11;;;;;;;34.58;26.02;;;;;;;;;;4948457;28;20043;-84
2021/09/27 08:57:46;;;;;;;32.78;26.45;;;;;;;;;;4934235;29;20043;-82
2021/09/27 09:00:16;;;;;;;33.95;26.00;;;;;;;;;;4952016;28;20054;-82
2021/09/27 09:02:57;;;;;;;31.17;26.20;;;;;;;;;;4937952;29;20125;-82
2021/09/27 09:05:26;;;;;;;30.75;24.40;;;;;;;;;;4954035;28;20039;-82
2021/09/27 09:07:57;;;;;;;26.05;23.20;;;;;;;;;;4951905;28;20125;-82
2021/09/27 09:10:36;;;;;;;28.35;23.95;;;;;;;;;;4956223;28;20043;-82
2021/09/27 09:13:04;;;;;;;26.95;23.90;;;;;;;;;;4953639;28;20039;-82
2021/09/27 09:15:32;;;;;;;25.10;22.48;;;;;;;;;;4964938;28;20098;-82
2021/09/27 09:18:03;;;;;;;24.42;21.88;;;;;;;;;;4954464;28;20047;-82
2021/09/27 09:20:44;;;;;;;24.27;21.70;;;;;;;;;;4953313;28;20039;-82
2021/09/27 09:23:14;;;;;;;24.63;20.70;;;;;;;;;;4939536;29;20047;-81
2021/09/27 09:25:42;;;;;;;22.25;19.92;;;;;;;;;;4953593;28;20078;-82
2021/09/27 09:28:10;;;;;;;24.17;20.13;;;;;;;;;;4952236;28;20043;-81
2021/09/27 09:30:41;;;;;;;25.67;20.80;;;;;;;;;;4951724;28;20386;-82
2021/09/27 09:33:10;;;;;;;22.92;19.83;;;;;;;;;;4943322;28;20043;-82
2021/09/27 09:35:37;;;;;;;21.88;19.45;;;;;;;;;;4937512;29;20490;-82
2021/09/27 09:38:06;;;;;;;21.30;19.00;;;;;;;;;;4952743;28;20043;-82
2021/09/27 09:40:35;;;;;;;20.88;18.65;;;;;;;;;;4952680;28;20130;-82
2021/09/27 09:43:05;;;;;;;20.77;18.02;;;;;;;;;;4952947;29;20043;-82
2021/09/27 09:45:35;;;;;;;19.92;17.85;;;;;;;;;;4953295;28;20090;-82
2021/09/27 09:48:21;;;;;;;20.73;18.63;;;;;;;;;;4952210;28;20067;-82
2021/09/27 09:50:50;;;;;;;19.30;17.23;;;;;;;;;;4934845;28;20043;-81
2021/09/27 09:53:22;;;;;;;20.67;17.23;;;;;;;;;;4955335;28;20055;-82
2021/09/27 09:55:55;;;;;;;21.42;17.00;;;;;;;;;;4936663;29;20051;-82
2021/09/27 09:58:32;;;;;;;20.95;17.40;;;;;;;;;;4952738;28;20048;-82
2021/09/27 10:01:01;;;;;;;18.75;16.73;;;;;;;;;;4952686;28;20047;-82
2021/09/27 10:03:31;;;;;;;20.20;18.10;;;;;;;;;;4937060;29;20043;-81
2021/09/27 10:06:03;;;;;;;19.40;17.38;;;;;;;;;;4936927;28;20047;-82
2021/09/27 10:08:31;;;;;;;24.33;17.98;;;;;;;;;;4958137;28;20031;-82
2021/09/27 10:11:00;;;;;;;18.35;16.50;;;;;;;;;;4960856;28;20035;-82
2021/09/27 10:13:29;;;;;;;21.67;17.13;;;;;;;;;;4954054;28;20066;-82
2021/09/27 10:15:57;;;;;;;20.17;15.77;;;;;;;;;;4977921;28;20075;-81
2021/09/27 10:18:26;;;;;;;17.77;16.08;;;;;;;;;;4975948;28;20082;-81
2021/09/27 10:21:01;;;;;;;19.92;17.10;;;;;;;;;;4953484;28;20043;-82
2021/09/27 10:23:31;;;;;;;19.83;17.83;;;;;;;;;;4957021;28;20043;-81
2021/09/27 10:26:10;;;;;;;20.52;18.42;;;;;;;;;;4950109;28;20297;-81
2021/09/27 10:28:40;;;;;;;22.45;19.48;;;;;;;;;;4948973;28;20109;-82
2021/09/27 10:31:09;;;;;;;21.63;19.45;;;;;;;;;;4935421;28;20484;-81
2021/09/27 10:33:39;;;;;;;21.85;19.55;;;;;;;;;;4963930;28;20101;-82
2021/09/27 10:36:09;;;;;;;23.52;20.45;;;;;;;;;;4952623;28;20070;-82
2021/09/27 10:38:42;;;;;;;22.92;19.27;;;;;;;;;;4952119;28;20091;-82
2021/09/27 10:41:13;;;;;;;22.67;20.58;;;;;;;;;;4952569;28;20457;-82
2021/09/27 10:43:41;;;;;;;23.02;20.35;;;;;;;;;;4951919;29;20055;-82
2021/09/27 10:46:08;;;;;;;25.13;19.08;;;;;;;;;;4952109;28;20572;-82
2021/09/27 10:48:37;;;;;;;28.70;17.73;;;;;;;;;;4935855;29;20479;-83
2021/09/27 10:51:05;;;;;;;19.63;17.63;;;;;;;;;;4951320;28;20055;-83
2021/09/27 10:53:40;;;;;;;18.33;15.98;;;;;;;;;;4938331;29;20044;-82
2021/09/27 10:56:14;;;;;;;16.55;15.05;;;;;;;;;;4951407;28;20386;-82
2021/09/27 10:58:44;;;;;;;16.05;13.77;;;;;;;;;;4936951;29;20090;-82
2021/09/27 11:01:12;;;;;;;14.93;13.25;;;;;;;;;;4951625;28;20051;-82
2021/09/27 11:03:42;;;;;;;14.35;12.90;;;;;;;;;;4938561;29;20052;-82
2021/09/27 11:06:30;;;;;;;13.82;11.80;;;;;;;;;;4952307;28;20043;-82
2021/09/27 11:09:02;;;;;;;16.70;11.85;;;;;;;;;;4926156;29;20437;-82
2021/09/27 11:11:38;;;;;;;12.63;11.40;;;;;;;;;;4939829;28;20051;-83
2021/09/27 11:14:19;;;;;;;11.15;9.25;;;;;;;;;;4940183;28;20062;-82
2021/09/27 11:16:47;;;;;;;10.57;9.40;;;;;;;;;;4951736;28;20043;-82
2021/09/27 11:19:31;;;;;;;9.68;8.77;;;;;;;;;;4937839;29;20094;-83
2021/09/27 11:21:58;;;;;;;10.27;9.27;;;;;;;;;;4942199;28;20130;-83
2021/09/27 11:24:41;;;;;;;11.98;9.45;;;;;;;;;;4951814;28;20047;-82
2021/09/27 11:27:12;;;;;;;12.27;8.63;;;;;;;;;;4934281;29;20040;-83
2021/09/27 11:29:47;;;;;;;8.73;7.78;;;;;;;;;;4951744;28;20059;-83
2021/09/27 11:32:19;;;;;;;9.82;8.02;;;;;;;;;;4953433;28;20047;-83
2021/09/27 11:34:55;;;;;;;9.52;7.50;;;;;;;;;;4966584;28;20045;-84
2021/09/27 11:37:24;;;;;;;14.82;8.82;;;;;;;;;;4937890;29;20043;-81
2021/09/27 11:39:53;;;;;;;10.95;8.30;;;;;;;;;;4939484;29;20055;-83
2021/09/27 11:42:38;;;;;;;15.43;8.82;;;;;;;;;;4955094;28;20047;-82
2021/09/27 11:45:16;;;;;;;9.55;8.65;;;;;;;;;;4955024;28;20051;-82
2021/09/27 11:47:57;;;;;;;9.43;7.80;;;;;;;;;;4938979;28;20040;-82
2021/09/27 11:50:53;;;;;;;9.95;8.63;;;;;;;;;;4954199;28;20047;-82
2021/09/27 11:53:23;;;;;;;12.13;8.93;;;;;;;;;;4894384;29;20047;-82
2021/09/27 11:55:57;;;;;;;11.15;9.85;;;;;;;;;;4938436;29;20122;-82
2021/09/27 11:58:26;;;;;;;10.65;9.35;;;;;;;;;;4938024;28;20548;-82
2021/09/27 12:00:56;;;;;;;10.20;7.88;;;;;;;;;;4954986;28;20216;-83
2021/09/27 12:03:27;;;;;;;11.82;7.88;;;;;;;;;;4952395;28;20102;-82
2021/09/27 12:05:57;;;;;;;9.85;8.75;;;;;;;;;;4948969;28;20390;-82
2021/09/27 12:08:26;;;;;;;9.73;8.82;;;;;;;;;;4955007;28;20047;-82
2021/09/27 12:10:58;;;;;;;9.63;8.68;;;;;;;;;;4953565;28;20367;-82
2021/09/27 12:13:26;;;;;;;9.02;8.07;;;;;;;;;;4953864;28;20079;-84
2021/09/27 12:15:56;;;;;;;9.63;8.00;;;;;;;;;;4939820;28;20042;-83
2021/09/27 12:18:38;;;;;;;8.50;7.40;;;;;;;;;;4938277;28;20480;-91
2021/09/27 12:21:09;;;;;;;9.48;7.50;;;;;;;;;;4954775;28;20051;-84
2021/09/27 12:23:42;;;;;;;8.98;7.30;;;;;;;;;;4933913;29;20040;-83
2021/09/27 12:26:09;;;;;;;8.05;7.35;;;;;;;;;;4950554;28;20532;-82
2021/09/27 12:28:37;;;;;;;7.93;6.60;;;;;;;;;;4951678;28;20142;-83
2021/09/27 12:31:20;;;;;;;8.57;6.32;;;;;;;;;;4954108;28;20059;-85
2021/09/27 12:37:01;;;;;;;7.57;4.68;;;;;;;;;;4927124;28;20056;-85
2021/09/27 12:39:46;;;;;;;5.90;5.20;;;;;;;;;;4957989;28;20515;-84
2021/09/27 12:42:16;;;;;;;7.82;5.35;;;;;;;;;;4952853;28;20166;-83
2021/09/27 12:44:45;;;;;;;5.60;4.95;;;;;;;;;;4956370;28;20051;-84
2021/09/27 12:47:12;;;;;;;7.10;5.05;;;;;;;;;;4939220;29;20075;-84
2021/09/27 12:49:42;;;;;;;7.30;5.10;;;;;;;;;;4954913;28;20046;-81
2021/09/27 12:52:29;;;;;;;8.07;6.00;;;;;;;;;;4940979;28;20055;-84
2021/09/27 13:12:26;;;;;;;5.70;4.97;;;;;;;;;;5548813;23;20560;-86
2021/09/27 13:15:11;;;;;;;6.03;5.38;;;;;;;;;;4948564;23;20056;-87
2021/09/27 13:17:39;;;;;;;8.05;5.00;;;;;;;;;;4933579;29;20114;-82
2021/09/27 13:20:21;;;;;;;7.88;5.25;;;;;;;;;;4914400;29;20123;-82
2021/09/27 13:22:49;;;;;;;8.02;5.18;;;;;;;;;;4913614;29;20044;-82
2021/09/27 13:25:21;;;;;;;6.93;5.22;;;;;;;;;;4916601;29;20040;-81
2021/09/27 13:27:51;;;;;;;6.18;5.18;;;;;;;;;;4914572;29;20055;-82
2021/09/27 13:30:23;;;;;;;6.55;4.93;;;;;;;;;;4913769;29;20059;-82
2021/09/27 13:32:53;;;;;;;7.90;5.45;;;;;;;;;;4902238;29;20414;-81
2021/09/27 13:53:46;;;;;;;7.05;5.57;;;;;;;;;;4889322;29;20507;-88
2021/09/27 13:59:31;;;;;;;;;;;;;;;;;;;;;
2021/09/27 14:05:04;;;;;;;;;;;;;;;;;;4917221;29;20053;-89
2021/09/27 14:07:45;;;;;;;6.43;4.32;;;;;;;;;;4916141;29;19974;-86
2021/09/27 14:16:34;;;;;;;7.90;5.30;;;;;;;;;;4965801;28;20565;-83
2021/09/27 14:22:05;;;;;;;6.18;4.85;;;;;;;;;;5535907;23;20093;-83
2021/09/27 14:24:33;;;;;;;6.65;5.18;;;;;;;;;;4982324;28;20105;-83
2021/09/27 14:27:07;;;;;;;6.00;5.40;;;;;;;;;;4987008;28;20034;-84
2021/09/27 14:29:46;;;;;;;6.38;5.25;;;;;;;;;;4969180;28;20492;-87
2021/09/27 14:32:17;;;;;;;9.05;5.55;;;;;;;;;;4963846;28;20458;-83
2021/09/27 14:34:53;;;;;;;7.43;5.43;;;;;;;;;;4967526;28;20051;-85
2021/09/27 14:38:13;;;;;;;;;;;;;;;;;;;;;
2021/09/27 20:26:25;;;;;;;3.60;0.60;;;;;;;;;;4970050;28;20038;-87
2021/09/27 20:28:52;;;;;;;5.55;0.93;;;;;;;;;;4969129;28;20038;-85
2021/09/27 20:31:20;;;;;;;0.88;0.60;;;;;;;;;;4960635;28;20054;-87
2021/09/27 20:33:48;;;;;;;3.60;0.65;;;;;;;;;;4968107;28;20045;-86
2021/09/27 20:36:16;;;;;;;4.07;0.50;;;;;;;;;;4989844;28;20500;-85
2021/09/27 20:38:43;;;;;;;1.90;0.60;;;;;;;;;;4977152;28;20062;-86
2021/09/27 20:41:11;;;;;;;2.75;0.77;;;;;;;;;;4988445;28;20047;-86
2021/09/27 20:43:40;;;;;;;3.20;0.77;;;;;;;;;;4982866;28;20055;-85
2021/09/27 20:46:07;;;;;;;1.85;0.80;;;;;;;;;;4979884;28;20050;-86
2021/09/27 20:48:35;;;;;;;1.75;0.70;;;;;;;;;;4975556;28;20046;-86
2021/09/27 20:51:04;;;;;;;4.00;0.93;;;;;;;;;;4961343;28;20047;-84
2021/09/27 20:53:32;;;;;;;4.30;0.68;;;;;;;;;;4981700;28;20053;-85
2021/09/27 20:55:59;;;;;;;4.57;0.57;;;;;;;;;;4974959;28;20057;-84
2021/09/27 20:58:27;;;;;;;2.90;0.65;;;;;;;;;;5004636;28;20042;-86
2021/09/27 21:00:55;;;;;;;3.83;0.85;;;;;;;;;;4981387;28;20093;-85
2021/09/27 21:03:23;;;;;;;2.53;0.85;;;;;;;;;;4978712;28;20049;-85
2021/09/27 21:05:51;;;;;;;4.78;0.80;;;;;;;;;;4982420;28;20052;-85
2021/09/27 21:08:18;;;;;;;3.05;1.02;;;;;;;;;;4982831;28;20093;-86
2021/09/27 21:10:46;;;;;;;3.08;0.75;;;;;;;;;;4980568;28;20484;-87
2021/09/27 21:13:15;;;;;;;5.35;1.42;;;;;;;;;;4986151;28;20488;-87
2021/09/27 21:15:44;;;;;;;5.03;1.15;;;;;;;;;;4995587;28;20052;-88
2021/09/27 21:18:14;;;;;;;4.40;1.13;;;;;;;;;;4994268;28;20069;-89
2021/09/27 21:20:42;;;;;;;2.58;1.30;;;;;;;;;;4976756;28;20046;-88
2021/09/27 21:23:10;;;;;;;3.97;1.50;;;;;;;;;;4997707;28;20100;-89
2021/09/27 21:25:38;;;;;;;6.65;1.77;;;;;;;;;;4983403;28;20046;-88
2021/09/27 21:28:05;;;;;;;3.13;1.77;;;;;;;;;;5000555;28;20027;-88
